Miami, Florida
Traffic Map
Current Weather Conditions
Miami, Florida
Broken Clouds
Broken Clouds
24°
Feels Like: 24°
Wind Chill: 24° Ceiling: 8500
Heat Index: 24° Visibility: 10mi
Dew Point: 22° Wind: 5mph
Humidity: 90% Direction: 20° (NNE)
Pressure: 30.16in Gusts: 0mph
Raw Report DataKMIA 270010Z 02004KT 10SM FEW005 SCT018 BKN085 BKN250 24/22 A3016 RMK AO2 T02390222 VISNO RWY 9L $
Traffic Incident Summary
Active as of:
Severity:
Category:
InformationThere was an issue retrieving the traffic information for this location. Please try a different location or try again shortly.
Advertisements
Track Severe Weather on mobile